createdAt,value
2018-08-27T00:00:43.755Z,17.10
2018-08-27T00:03:11.901Z,17.10
2018-08-27T00:05:40.074Z,17.10
2018-08-27T00:08:08.246Z,17.10
2018-08-27T00:10:36.341Z,17.10
2018-08-27T00:13:04.425Z,17.00
2018-08-27T00:15:32.728Z,17.10
2018-08-27T00:18:00.897Z,17.00
2018-08-27T00:20:29.002Z,17.00
2018-08-27T00:22:57.114Z,16.90
2018-08-27T00:25:25.239Z,16.90
2018-08-27T00:27:53.308Z,16.90
2018-08-27T00:30:21.392Z,16.90
2018-08-27T00:32:49.470Z,16.90
2018-08-27T00:35:17.537Z,16.90
2018-08-27T00:37:45.624Z,16.80
2018-08-27T00:40:13.695Z,16.90
2018-08-27T00:42:41.781Z,16.80
2018-08-27T00:45:09.853Z,16.80
2018-08-27T00:47:37.935Z,16.80
2018-08-27T00:50:06.028Z,16.70
2018-08-27T00:52:34.112Z,16.70
2018-08-27T00:55:02.169Z,16.60
2018-08-27T00:57:30.269Z,16.60
2018-08-27T00:59:58.333Z,16.60
2018-08-27T01:02:26.756Z,16.70
2018-08-27T01:04:54.821Z,16.60
2018-08-27T01:07:23.519Z,16.60
2018-08-27T01:09:51.604Z,16.60
2018-08-27T01:12:19.677Z,16.60
2018-08-27T01:14:47.757Z,16.50
2018-08-27T01:17:15.821Z,16.60
2018-08-27T01:19:44.101Z,16.50
2018-08-27T01:22:13.156Z,16.40
2018-08-27T01:24:41.229Z,16.40
2018-08-27T01:27:09.305Z,16.40
2018-08-27T01:29:37.389Z,16.40
2018-08-27T01:32:10.816Z,16.40
2018-08-27T01:34:38.889Z,16.40
2018-08-27T01:37:06.972Z,16.30
2018-08-27T01:39:35.070Z,16.30
2018-08-27T01:42:03.132Z,16.20
2018-08-27T01:44:31.205Z,16.20
2018-08-27T01:46:59.291Z,16.20
2018-08-27T01:49:27.385Z,16.30
2018-08-27T01:51:55.456Z,16.30
2018-08-27T01:54:23.579Z,16.30
2018-08-27T01:56:51.606Z,16.30
2018-08-27T01:59:19.689Z,16.20
2018-08-27T02:01:47.773Z,16.20
2018-08-27T02:04:15.853Z,16.20
2018-08-27T02:06:49.165Z,16.20
2018-08-27T02:09:17.262Z,16.20
2018-08-27T02:11:45.333Z,16.20
2018-08-27T02:14:13.410Z,16.10
2018-08-27T02:16:41.485Z,16.00
2018-08-27T02:19:09.576Z,16.00
2018-08-27T02:21:37.677Z,16.00
2018-08-27T02:24:05.956Z,16.00
2018-08-27T02:26:34.062Z,16.00
2018-08-27T02:29:02.153Z,16.00
2018-08-27T02:31:30.221Z,16.00
2018-08-27T02:33:58.592Z,16.10
2018-08-27T02:36:26.661Z,16.10
2018-08-27T02:38:54.749Z,16.00
2018-08-27T02:41:22.808Z,16.00
2018-08-27T02:43:50.900Z,16.10
2018-08-27T02:46:18.965Z,16.10
2018-08-27T02:48:47.055Z,16.20
2018-08-27T02:51:15.117Z,16.10
2018-08-27T02:53:43.201Z,16.10
2018-08-27T02:56:11.277Z,16.10
2018-08-27T02:58:39.545Z,16.10
2018-08-27T03:01:07.617Z,16.10
2018-08-27T03:03:35.716Z,16.20
2018-08-27T03:06:03.817Z,16.20
2018-08-27T03:08:31.919Z,16.20
2018-08-27T03:11:00.191Z,16.10
2018-08-27T03:13:28.321Z,16.20
2018-08-27T03:15:56.389Z,16.20
2018-08-27T03:18:24.544Z,16.20
2018-08-27T03:20:52.590Z,16.20
2018-08-27T03:23:20.661Z,16.20
2018-08-27T03:25:48.761Z,16.20
2018-08-27T03:28:16.834Z,16.20
2018-08-27T03:30:44.902Z,16.20
2018-08-27T03:33:12.989Z,16.20
2018-08-27T03:35:41.068Z,16.20
2018-08-27T03:38:09.161Z,16.20
2018-08-27T03:40:37.268Z,16.20
2018-08-27T03:43:05.590Z,16.20
2018-08-27T03:45:33.685Z,16.30
2018-08-27T03:48:01.781Z,16.30
2018-08-27T03:50:29.872Z,16.30
2018-08-27T03:52:58.028Z,16.30
2018-08-27T03:55:26.116Z,16.30
2018-08-27T03:57:54.185Z,16.30
2018-08-27T04:00:22.269Z,16.30
2018-08-27T04:02:50.350Z,16.30
2018-08-27T04:05:18.464Z,16.30
2018-08-27T04:07:46.507Z,16.30
2018-08-27T04:10:14.811Z,16.30
2018-08-27T04:12:42.906Z,16.40
2018-08-27T04:15:10.973Z,16.40
2018-08-27T04:17:39.057Z,16.40
2018-08-27T04:20:07.134Z,16.40
2018-08-27T04:22:35.223Z,16.30
2018-08-27T04:25:03.293Z,16.40
2018-08-27T04:27:31.385Z,16.40
2018-08-27T04:29:59.475Z,16.30
2018-08-27T04:32:27.537Z,16.40
2018-08-27T04:34:55.651Z,16.40
2018-08-27T04:37:23.686Z,16.40
2018-08-27T04:39:51.813Z,16.40
2018-08-27T04:42:19.888Z,16.40
2018-08-27T04:44:47.970Z,16.40
2018-08-27T04:47:16.058Z,16.40
2018-08-27T04:49:44.149Z,16.40
2018-08-27T04:52:12.218Z,16.40
2018-08-27T04:54:40.309Z,16.40
2018-08-27T04:57:08.380Z,16.40
2018-08-27T04:59:42.205Z,16.40
2018-08-27T05:02:10.319Z,16.40
2018-08-27T05:04:38.392Z,16.50
2018-08-27T05:07:06.773Z,16.40
2018-08-27T05:09:34.904Z,16.50
2018-08-27T05:12:03.001Z,16.50
2018-08-27T05:14:31.073Z,16.60
2018-08-27T05:16:59.150Z,16.60
2018-08-27T05:19:27.222Z,16.60
2018-08-27T05:21:55.302Z,16.50
2018-08-27T05:24:23.393Z,16.60
2018-08-27T05:26:51.470Z,16.50
2018-08-27T05:29:19.626Z,16.60
2018-08-27T05:31:47.888Z,16.50
2018-08-27T05:34:15.964Z,16.50
2018-08-27T05:36:44.057Z,16.60
2018-08-27T05:39:12.133Z,16.60
2018-08-27T05:41:40.214Z,16.70
2018-08-27T05:44:08.344Z,16.70
2018-08-27T05:46:36.427Z,16.70
2018-08-27T05:49:04.502Z,16.70
2018-08-27T05:51:32.876Z,16.70
2018-08-27T05:54:00.921Z,16.70
2018-08-27T05:56:29.021Z,16.70
2018-08-27T05:58:57.125Z,16.80
2018-08-27T06:01:25.539Z,16.80
2018-08-27T06:03:53.582Z,16.80
2018-08-27T06:06:21.668Z,16.80
2018-08-27T06:08:49.774Z,16.80
2018-08-27T06:11:17.891Z,16.80
2018-08-27T06:13:45.922Z,16.80
2018-08-27T06:16:14.110Z,16.90
2018-08-27T06:18:42.101Z,17.00
2018-08-27T06:21:10.189Z,17.00
2018-08-27T06:23:38.269Z,17.00
2018-08-27T06:26:06.365Z,17.00
2018-08-27T06:28:34.453Z,17.10
2018-08-27T06:31:02.536Z,17.10
2018-08-27T06:33:30.617Z,17.10
2018-08-27T06:35:58.799Z,17.10
2018-08-27T06:38:27.071Z,17.10
2018-08-27T06:40:55.142Z,17.10
2018-08-27T06:43:23.233Z,17.10
2018-08-27T06:45:51.332Z,17.10
2018-08-27T06:48:19.430Z,17.20
2018-08-27T06:50:47.497Z,17.20
2018-08-27T06:53:15.787Z,17.30
2018-08-27T06:55:44.402Z,17.30
2018-08-27T06:58:13.121Z,17.40
2018-08-27T07:00:41.875Z,17.50
2018-08-27T07:03:10.150Z,17.50
2018-08-27T07:05:39.299Z,17.50
2018-08-27T07:08:07.801Z,17.50
2018-08-27T07:10:36.328Z,17.60
2018-08-27T07:13:05.670Z,17.60
2018-08-27T07:15:34.039Z,17.60
2018-08-27T07:18:02.575Z,17.60
2018-08-27T07:20:31.959Z,17.70
2018-08-27T07:23:00.642Z,17.70
2018-08-27T07:25:30.118Z,17.60
2018-08-27T07:27:58.413Z,17.70
2018-08-27T07:30:26.652Z,17.70
2018-08-27T07:32:54.750Z,17.70
2018-08-27T07:35:22.829Z,17.80
2018-08-27T07:37:50.926Z,17.70
2018-08-27T07:40:18.990Z,17.80
2018-08-27T07:42:47.069Z,17.80
2018-08-27T07:45:15.263Z,17.80
2018-08-27T07:47:43.341Z,17.80
2018-08-27T07:50:11.409Z,17.80
2018-08-27T07:52:39.732Z,17.90
2018-08-27T07:55:08.134Z,18.00
2018-08-27T07:57:36.247Z,18.00
2018-08-27T08:00:06.530Z,18.00
2018-08-27T08:02:34.626Z,18.00
2018-08-27T08:05:02.841Z,18.00
2018-08-27T08:07:30.970Z,18.00
2018-08-27T08:09:59.040Z,18.00
2018-08-27T08:12:27.113Z,18.00
2018-08-27T08:14:55.204Z,18.00
2018-08-27T08:17:23.319Z,18.10
2018-08-27T08:19:51.399Z,18.10
2018-08-27T08:22:19.491Z,18.10
2018-08-27T08:24:47.573Z,18.20
2018-08-27T08:27:15.665Z,18.20
2018-08-27T08:29:44.446Z,18.20
2018-08-27T08:32:13.271Z,18.20
2018-08-27T08:34:41.367Z,18.30
2018-08-27T08:37:09.447Z,18.30
2018-08-27T08:39:37.572Z,18.40
2018-08-27T08:42:06.317Z,18.40
2018-08-27T08:44:34.421Z,18.30
2018-08-27T08:47:03.018Z,18.30
2018-08-27T08:49:31.102Z,18.40
2018-08-27T08:51:59.204Z,18.40
2018-08-27T08:54:27.277Z,18.50
2018-08-27T08:56:55.408Z,18.40
2018-08-27T08:59:23.482Z,18.40
2018-08-27T09:01:51.603Z,18.30
2018-08-27T09:04:19.677Z,18.30
2018-08-27T09:06:47.768Z,18.20
2018-08-27T09:09:15.860Z,18.20
2018-08-27T09:11:43.962Z,18.20
2018-08-27T09:14:12.133Z,18.10
2018-08-27T09:16:40.334Z,18.10
2018-08-27T09:19:08.387Z,18.10
2018-08-27T09:21:36.458Z,18.00
2018-08-27T09:24:05.362Z,18.00
2018-08-27T09:26:33.441Z,17.90
2018-08-27T09:29:01.517Z,18.00
2018-08-27T09:31:30.621Z,18.00
2018-08-27T09:34:00.611Z,18.00
2018-08-27T09:36:29.478Z,18.00
2018-08-27T09:38:58.169Z,18.10
2018-08-27T09:41:27.196Z,18.10
2018-08-27T09:43:55.270Z,18.10
2018-08-27T09:46:23.467Z,18.00
2018-08-27T09:48:51.569Z,18.10
2018-08-27T09:51:19.737Z,18.10
2018-08-27T09:53:47.885Z,18.10
2018-08-27T09:56:16.839Z,18.20
2018-08-27T09:58:44.963Z,18.10
2018-08-27T10:01:20.567Z,18.10
2018-08-27T10:03:48.671Z,18.10
2018-08-27T10:06:16.747Z,18.10
2018-08-27T10:08:44.864Z,18.10
2018-08-27T10:11:12.933Z,18.20
2018-08-27T10:13:41.084Z,18.20
2018-08-27T10:16:09.148Z,18.30
2018-08-27T10:18:37.213Z,18.30
2018-08-27T10:21:05.297Z,18.40
2018-08-27T10:23:33.552Z,18.50
2018-08-27T10:26:01.643Z,18.40
2018-08-27T10:28:29.724Z,18.30
2018-08-27T10:30:57.790Z,18.20
2018-08-27T10:33:25.865Z,18.20
2018-08-27T10:35:53.964Z,18.20
2018-08-27T10:38:22.034Z,18.30
2018-08-27T10:40:50.119Z,18.40
2018-08-27T10:43:18.206Z,18.40
2018-08-27T10:45:46.279Z,18.40
2018-08-27T10:48:14.370Z,18.50
2018-08-27T10:50:42.442Z,18.50
2018-08-27T10:53:10.566Z,18.60
2018-08-27T10:55:38.642Z,18.60
2018-08-27T10:58:06.923Z,18.60
2018-08-27T11:00:34.986Z,18.60
2018-08-27T11:03:03.122Z,18.70
2018-08-27T11:05:31.198Z,18.70
2018-08-27T11:07:59.268Z,18.70
2018-08-27T11:10:27.349Z,18.80
2018-08-27T11:12:55.425Z,18.90
2018-08-27T11:15:23.523Z,18.90
2018-08-27T11:17:51.585Z,18.80
2018-08-27T11:20:19.818Z,18.70
2018-08-27T11:22:47.758Z,18.50
2018-08-27T11:25:15.834Z,18.50
2018-08-27T11:27:43.931Z,18.50
2018-08-27T11:30:12.009Z,18.60
2018-08-27T11:32:40.104Z,18.60
2018-08-27T11:35:09.081Z,18.70
2018-08-27T11:37:37.693Z,18.70
2018-08-27T11:40:08.849Z,18.80
2018-08-27T11:42:38.275Z,18.80
2018-08-27T11:45:06.521Z,18.90
2018-08-27T11:47:34.607Z,19.00
2018-08-27T11:50:02.707Z,19.00
2018-08-27T11:52:30.769Z,19.10
2018-08-27T11:54:59.313Z,19.10
2018-08-27T11:57:27.302Z,19.20
2018-08-27T11:59:55.391Z,19.20
2018-08-27T12:02:23.493Z,19.30
2018-08-27T12:04:51.809Z,19.30
2018-08-27T12:07:19.887Z,19.30
2018-08-27T12:09:47.975Z,19.30
2018-08-27T12:12:16.054Z,19.30
2018-08-27T12:14:44.136Z,19.40
2018-08-27T12:17:12.219Z,19.40
2018-08-27T12:19:40.332Z,19.40
2018-08-27T12:22:08.409Z,19.50
2018-08-27T12:24:36.507Z,19.50
2018-08-27T12:27:04.684Z,19.50
2018-08-27T12:29:32.774Z,19.50
2018-08-27T12:32:01.179Z,19.50
2018-08-27T12:34:29.325Z,19.50
2018-08-27T12:36:57.427Z,19.60
2018-08-27T12:39:25.518Z,19.70
2018-08-27T12:41:53.584Z,19.70
2018-08-27T12:44:21.673Z,19.70
2018-08-27T12:46:49.737Z,19.70
2018-08-27T12:49:17.817Z,19.70
2018-08-27T12:51:45.889Z,19.70
2018-08-27T12:54:13.983Z,19.80
2018-08-27T12:56:42.086Z,19.80
2018-08-27T12:59:10.175Z,19.80
2018-08-27T13:01:38.253Z,19.70
2018-08-27T13:04:06.969Z,19.70
2018-08-27T13:06:35.048Z,19.70
2018-08-27T13:09:03.430Z,19.80
2018-08-27T13:11:32.338Z,19.80
2018-08-27T13:14:01.071Z,19.90
2018-08-27T13:16:29.302Z,20.00
2018-08-27T13:18:59.110Z,20.10
2018-08-27T13:21:27.254Z,20.20
2018-08-27T13:23:56.005Z,20.30
2018-08-27T13:26:24.210Z,20.40
2018-08-27T13:28:52.317Z,20.50
2018-08-27T13:31:20.428Z,20.60
2018-08-27T13:33:48.482Z,20.70
2018-08-27T13:36:16.570Z,20.80
2018-08-27T13:38:44.651Z,20.90
2018-08-27T13:41:12.735Z,20.90
2018-08-27T13:43:40.805Z,20.90
2018-08-27T13:46:08.920Z,20.80
2018-08-27T13:48:37.050Z,20.90
2018-08-27T13:51:05.096Z,21.00
2018-08-27T13:53:33.165Z,21.10
2018-08-27T13:56:01.242Z,21.20
2018-08-27T13:58:29.310Z,21.30
2018-08-27T14:00:57.462Z,21.30
2018-08-27T14:03:25.578Z,21.30
2018-08-27T14:05:53.665Z,21.30
2018-08-27T14:08:21.736Z,21.40
2018-08-27T14:10:49.865Z,21.40
2018-08-27T14:13:17.913Z,21.40
2018-08-27T14:15:46.045Z,21.50
2018-08-27T14:18:14.098Z,21.60
2018-08-27T14:20:42.236Z,21.60
2018-08-27T14:23:10.273Z,21.70
2018-08-27T14:25:38.402Z,21.80
2018-08-27T14:28:06.481Z,21.80
2018-08-27T14:30:34.568Z,21.80
2018-08-27T14:33:02.666Z,21.90
2018-08-27T14:35:30.777Z,22.00
2018-08-27T14:37:58.813Z,22.10
2018-08-27T14:40:26.901Z,22.30
2018-08-27T14:42:54.981Z,22.30
2018-08-27T14:45:23.057Z,22.30
2018-08-27T14:47:51.210Z,22.40
2018-08-27T14:50:19.237Z,22.40
2018-08-27T14:52:47.331Z,22.30
2018-08-27T14:55:15.430Z,22.30
2018-08-27T14:57:43.505Z,22.20
2018-08-27T15:00:11.592Z,22.10
2018-08-27T15:02:39.664Z,22.10
2018-08-27T15:05:08.069Z,22.10
2018-08-27T15:07:36.158Z,22.10
2018-08-27T15:10:04.525Z,22.10
2018-08-27T15:12:32.606Z,22.00
2018-08-27T15:15:00.685Z,21.90
2018-08-27T15:17:28.780Z,21.90
2018-08-27T15:19:56.889Z,21.80
2018-08-27T15:22:24.969Z,21.80
2018-08-27T15:24:53.080Z,21.80
2018-08-27T15:27:21.176Z,21.80
2018-08-27T15:29:49.277Z,21.90
2018-08-27T15:32:17.348Z,21.90
2018-08-27T15:34:45.437Z,21.90
2018-08-27T15:37:13.541Z,21.80
2018-08-27T15:39:41.614Z,21.80
2018-08-27T15:42:09.690Z,21.70
2018-08-27T15:44:37.818Z,21.60
2018-08-27T15:47:05.866Z,21.60
2018-08-27T15:49:33.987Z,21.60
2018-08-27T15:52:02.028Z,21.60
2018-08-27T15:54:30.121Z,21.70
2018-08-27T15:56:58.213Z,21.70
2018-08-27T15:59:26.285Z,21.70
2018-08-27T16:01:54.365Z,21.70
2018-08-27T16:04:22.626Z,21.70
2018-08-27T16:06:50.590Z,21.80
2018-08-27T16:09:18.668Z,21.90
2018-08-27T16:11:46.759Z,22.30
2018-08-27T16:14:14.837Z,22.50
2018-08-27T16:16:42.916Z,22.80
2018-08-27T16:19:11.022Z,23.10
2018-08-27T16:21:39.120Z,23.30
2018-08-27T16:24:07.233Z,23.40
2018-08-27T16:26:35.318Z,23.30
2018-08-27T16:29:03.432Z,23.10
2018-08-27T16:31:31.498Z,23.00
2018-08-27T16:33:59.569Z,22.90
2018-08-27T16:36:27.653Z,22.80
2018-08-27T16:38:55.732Z,22.90
2018-08-27T16:41:23.821Z,22.90
2018-08-27T16:43:51.919Z,23.00
2018-08-27T16:46:20.004Z,23.00
2018-08-27T16:48:48.072Z,23.10
2018-08-27T16:51:16.189Z,23.20
2018-08-27T16:53:44.266Z,23.40
2018-08-27T16:56:12.366Z,23.50
2018-08-27T16:58:40.451Z,23.40
2018-08-27T17:01:08.537Z,23.20
2018-08-27T17:03:36.834Z,23.00
2018-08-27T17:06:04.922Z,22.80
2018-08-27T17:08:33.025Z,22.60
2018-08-27T17:11:01.109Z,22.50
2018-08-27T17:13:29.188Z,22.40
2018-08-27T17:15:57.293Z,22.30
2018-08-27T17:18:25.384Z,22.30
2018-08-27T17:20:53.485Z,22.30
2018-08-27T17:23:21.549Z,22.30
2018-08-27T17:25:49.617Z,22.40
2018-08-27T17:28:17.726Z,22.40
2018-08-27T17:30:45.803Z,22.50
2018-08-27T17:33:13.892Z,22.50
2018-08-27T17:35:41.982Z,22.50
2018-08-27T17:38:10.251Z,22.60
2018-08-27T17:40:38.326Z,22.50
2018-08-27T17:43:06.401Z,22.40
2018-08-27T17:45:34.489Z,22.40
2018-08-27T17:48:02.575Z,22.40
2018-08-27T17:50:30.701Z,22.20
2018-08-27T17:52:58.849Z,22.20
2018-08-27T17:55:26.933Z,22.10
2018-08-27T17:57:55.014Z,22.00
2018-08-27T18:00:23.110Z,21.90
2018-08-27T18:02:51.197Z,21.80
2018-08-27T18:05:19.273Z,21.80
2018-08-27T18:07:47.365Z,21.80
2018-08-27T18:10:15.447Z,21.80
2018-08-27T18:12:43.528Z,21.60
2018-08-27T18:15:11.913Z,21.60
2018-08-27T18:17:40.028Z,21.60
2018-08-27T18:20:08.267Z,21.50
2018-08-27T18:22:36.425Z,21.50
2018-08-27T18:25:04.509Z,21.40
2018-08-27T18:27:32.524Z,21.30
2018-08-27T18:30:00.589Z,21.20
2018-08-27T18:32:28.694Z,21.10
2018-08-27T18:34:56.900Z,21.10
2018-08-27T18:37:24.855Z,21.00
2018-08-27T18:39:53.116Z,21.00
2018-08-27T18:42:21.202Z,20.90
2018-08-27T18:44:49.290Z,20.90
2018-08-27T18:47:17.377Z,20.80
2018-08-27T18:49:45.444Z,20.80
2018-08-27T18:52:13.797Z,20.70
2018-08-27T18:54:41.885Z,20.70
2018-08-27T18:57:10.002Z,20.70
2018-08-27T18:59:38.417Z,20.70
2018-08-27T19:02:06.526Z,20.70
2018-08-27T19:04:34.596Z,20.70
2018-08-27T19:07:02.730Z,20.80
2018-08-27T19:09:30.806Z,20.80
2018-08-27T19:11:58.889Z,20.70
2018-08-27T19:14:26.977Z,20.70
2018-08-27T19:16:55.061Z,20.80
2018-08-27T19:19:23.145Z,20.80
2018-08-27T19:21:51.279Z,20.80
2018-08-27T19:24:19.410Z,20.80
2018-08-27T19:26:47.434Z,20.70
2018-08-27T19:29:15.538Z,20.70
2018-08-27T19:31:43.619Z,20.70
2018-08-27T19:34:11.693Z,20.70
2018-08-27T19:36:39.880Z,22.10
2018-08-27T19:39:07.973Z,20.80
2018-08-27T19:41:36.113Z,20.80
2018-08-27T19:44:04.230Z,20.70
2018-08-27T19:46:32.325Z,20.60
2018-08-27T19:49:00.897Z,20.60
2018-08-27T19:51:29.018Z,20.60
2018-08-27T19:53:57.076Z,20.70
2018-08-27T19:56:25.178Z,20.70
2018-08-27T19:58:53.257Z,20.70
2018-08-27T20:01:21.510Z,20.70
2018-08-27T20:03:49.636Z,20.70
2018-08-27T20:06:17.812Z,20.70
2018-08-27T20:08:46.438Z,20.70
2018-08-27T20:11:14.519Z,20.70
2018-08-27T20:13:42.619Z,20.70
2018-08-27T20:16:10.758Z,20.60
2018-08-27T20:18:38.789Z,20.60
2018-08-27T20:21:06.869Z,20.70
2018-08-27T20:23:34.966Z,20.70
2018-08-27T20:26:03.113Z,20.70
2018-08-27T20:28:31.140Z,20.70
2018-08-27T20:30:59.212Z,20.70
2018-08-27T20:33:27.299Z,20.70
2018-08-27T20:35:55.380Z,20.60
2018-08-27T20:38:23.512Z,20.60
2018-08-27T20:40:51.590Z,20.60
2018-08-27T20:43:19.700Z,20.70
2018-08-27T20:45:47.841Z,20.80
2018-08-27T20:48:15.897Z,20.80
2018-08-27T20:50:44.033Z,20.80
2018-08-27T20:53:12.089Z,20.80
2018-08-27T20:55:40.170Z,20.80
2018-08-27T20:58:08.257Z,20.70
2018-08-27T21:00:36.365Z,20.70
2018-08-27T21:03:04.473Z,20.70
2018-08-27T21:05:32.532Z,20.70
2018-08-27T21:08:00.646Z,20.60
2018-08-27T21:10:29.034Z,20.60
2018-08-27T21:12:57.097Z,20.60
2018-08-27T21:15:25.232Z,20.60
2018-08-27T21:17:54.068Z,20.50
2018-08-27T21:20:22.948Z,20.50
2018-08-27T21:22:51.100Z,20.50
2018-08-27T21:25:19.275Z,20.50
2018-08-27T21:27:48.481Z,20.40
2018-08-27T21:30:17.921Z,20.40
2018-08-27T21:32:45.976Z,20.30
2018-08-27T21:35:14.145Z,20.30
2018-08-27T21:37:42.212Z,20.20
2018-08-27T21:40:10.306Z,20.20
2018-08-27T21:42:38.373Z,20.20
2018-08-27T21:45:06.676Z,20.20
2018-08-27T21:47:34.775Z,20.20
2018-08-27T21:50:02.870Z,20.20
2018-08-27T21:52:31.233Z,20.20
2018-08-27T21:54:59.349Z,20.10
2018-08-27T21:57:27.417Z,20.10
2018-08-27T21:59:55.517Z,20.10
2018-08-27T22:02:28.916Z,20.10
2018-08-27T22:04:57.010Z,20.10
2018-08-27T22:07:25.085Z,20.10
2018-08-27T22:09:53.173Z,20.00
2018-08-27T22:12:21.249Z,20.00
2018-08-27T22:14:50.136Z,20.00
2018-08-27T22:17:18.209Z,20.00
2018-08-27T22:19:46.285Z,20.00
2018-08-27T22:22:14.423Z,19.90
2018-08-27T22:24:42.442Z,20.00
2018-08-27T22:27:10.520Z,19.90
2018-08-27T22:29:38.615Z,19.90
2018-08-27T22:32:06.714Z,19.80
2018-08-27T22:34:34.817Z,19.80
2018-08-27T22:37:03.814Z,19.70
2018-08-27T22:39:31.906Z,19.70
2018-08-27T22:41:59.978Z,19.60
2018-08-27T22:44:28.056Z,19.60
2018-08-27T22:46:56.136Z,19.50
2018-08-27T22:49:24.239Z,19.40
2018-08-27T22:51:52.313Z,19.40
2018-08-27T22:54:20.398Z,19.30
2018-08-27T22:56:48.473Z,19.20
2018-08-27T22:59:16.565Z,19.20
2018-08-27T23:01:44.646Z,19.10
2018-08-27T23:04:18.149Z,19.00
2018-08-27T23:06:46.234Z,19.00
2018-08-27T23:09:14.334Z,18.90
2018-08-27T23:11:42.426Z,18.80
2018-08-27T23:14:10.508Z,18.70
2018-08-27T23:16:38.572Z,18.60
2018-08-27T23:19:06.653Z,18.50
2018-08-27T23:21:34.720Z,18.50
2018-08-27T23:24:02.804Z,18.40
2018-08-27T23:26:30.901Z,18.40
2018-08-27T23:28:58.983Z,18.30
2018-08-27T23:31:27.049Z,18.30
2018-08-27T23:33:55.125Z,18.30
2018-08-27T23:36:23.405Z,18.20
2018-08-27T23:38:51.486Z,18.20
2018-08-27T23:41:19.573Z,18.10
2018-08-27T23:43:47.656Z,18.10
2018-08-27T23:46:15.733Z,18.10
2018-08-27T23:48:43.877Z,18.00
2018-08-27T23:51:11.974Z,17.90
2018-08-27T23:53:40.062Z,17.90
2018-08-27T23:56:08.157Z,17.80
2018-08-27T23:58:36.351Z,17.80
